sensor_id;sensor_type;location;lat;lon;timestamp;P1;durP1;ratioP1;P2;durP2;ratioP2
7195;SDS011;3639;51.308;5.624;2023-12-20T00:02:18;11.00;;;5.53;;
7195;SDS011;3639;51.308;5.624;2023-12-20T00:04:44;13.97;;;5.43;;
7195;SDS011;3639;51.308;5.624;2023-12-20T00:07:09;14.23;;;5.97;;
7195;SDS011;3639;51.308;5.624;2023-12-20T00:09:35;17.10;;;4.10;;
7195;SDS011;3639;51.308;5.624;2023-12-20T00:12:00;13.83;;;4.67;;
7195;SDS011;3639;51.308;5.624;2023-12-20T00:14:26;12.70;;;4.33;;
7195;SDS011;3639;51.308;5.624;2023-12-20T00:16:52;13.57;;;4.53;;
7195;SDS011;3639;51.308;5.624;2023-12-20T00:19:17;12.13;;;4.07;;
7195;SDS011;3639;51.308;5.624;2023-12-20T00:21:43;16.37;;;4.27;;
7195;SDS011;3639;51.308;5.624;2023-12-20T00:24:08;8.87;;;4.10;;
7195;SDS011;3639;51.308;5.624;2023-12-20T00:26:34;13.03;;;4.83;;
7195;SDS011;3639;51.308;5.624;2023-12-20T00:28:59;8.60;;;3.50;;
7195;SDS011;3639;51.308;5.624;2023-12-20T00:31:25;15.97;;;4.47;;
7195;SDS011;3639;51.308;5.624;2023-12-20T00:33:50;8.17;;;3.63;;
7195;SDS011;3639;51.308;5.624;2023-12-20T00:36:16;11.63;;;3.90;;
7195;SDS011;3639;51.308;5.624;2023-12-20T00:38:42;11.10;;;4.00;;
7195;SDS011;3639;51.308;5.624;2023-12-20T00:41:07;13.90;;;3.83;;
7195;SDS011;3639;51.308;5.624;2023-12-20T00:43:33;9.43;;;3.07;;
7195;SDS011;3639;51.308;5.624;2023-12-20T00:45:58;11.60;;;3.10;;
7195;SDS011;3639;51.308;5.624;2023-12-20T00:48:25;13.87;;;3.87;;
7195;SDS011;3639;51.308;5.624;2023-12-20T00:50:52;16.03;;;3.30;;
7195;SDS011;3639;51.308;5.624;2023-12-20T00:53:17;13.30;;;3.50;;
7195;SDS011;3639;51.308;5.624;2023-12-20T00:55:43;13.60;;;3.73;;
7195;SDS011;3639;51.308;5.624;2023-12-20T00:58:10;11.17;;;2.93;;
7195;SDS011;3639;51.308;5.624;2023-12-20T01:00:35;16.73;;;3.10;;
7195;SDS011;3639;51.308;5.624;2023-12-20T01:03:01;9.63;;;3.17;;
7195;SDS011;3639;51.308;5.624;2023-12-20T01:05:26;10.73;;;3.07;;
7195;SDS011;3639;51.308;5.624;2023-12-20T01:07:52;11.93;;;3.30;;
7195;SDS011;3639;51.308;5.624;2023-12-20T01:10:17;9.80;;;3.67;;
7195;SDS011;3639;51.308;5.624;2023-12-20T01:12:43;9.53;;;3.03;;
7195;SDS011;3639;51.308;5.624;2023-12-20T01:15:09;8.37;;;2.63;;
7195;SDS011;3639;51.308;5.624;2023-12-20T01:17:35;14.37;;;3.73;;
7195;SDS011;3639;51.308;5.624;2023-12-20T01:20:00;9.07;;;3.23;;
7195;SDS011;3639;51.308;5.624;2023-12-20T01:22:26;10.93;;;3.20;;
7195;SDS011;3639;51.308;5.624;2023-12-20T01:24:52;9.53;;;3.57;;
7195;SDS011;3639;51.308;5.624;2023-12-20T01:27:17;16.47;;;3.60;;
7195;SDS011;3639;51.308;5.624;2023-12-20T01:29:43;13.97;;;3.27;;
7195;SDS011;3639;51.308;5.624;2023-12-20T01:32:08;13.63;;;3.30;;
7195;SDS011;3639;51.308;5.624;2023-12-20T01:34:34;14.70;;;3.17;;
7195;SDS011;3639;51.308;5.624;2023-12-20T01:37:00;13.80;;;3.33;;
7195;SDS011;3639;51.308;5.624;2023-12-20T01:39:26;13.23;;;3.47;;
7195;SDS011;3639;51.308;5.624;2023-12-20T01:41:52;13.40;;;2.83;;
7195;SDS011;3639;51.308;5.624;2023-12-20T01:44:17;8.73;;;3.57;;
7195;SDS011;3639;51.308;5.624;2023-12-20T01:46:43;11.93;;;3.23;;
7195;SDS011;3639;51.308;5.624;2023-12-20T01:49:09;14.63;;;3.60;;
7195;SDS011;3639;51.308;5.624;2023-12-20T01:51:34;11.33;;;3.37;;
7195;SDS011;3639;51.308;5.624;2023-12-20T01:54:01;10.13;;;2.70;;
7195;SDS011;3639;51.308;5.624;2023-12-20T01:56:27;12.03;;;4.00;;
7195;SDS011;3639;51.308;5.624;2023-12-20T01:58:54;13.37;;;3.60;;
7195;SDS011;3639;51.308;5.624;2023-12-20T02:01:21;10.83;;;4.03;;
7195;SDS011;3639;51.308;5.624;2023-12-20T02:03:47;10.90;;;2.97;;
7195;SDS011;3639;51.308;5.624;2023-12-20T02:06:13;14.30;;;3.77;;
7195;SDS011;3639;51.308;5.624;2023-12-20T02:08:39;15.50;;;3.43;;
7195;SDS011;3639;51.308;5.624;2023-12-20T02:11:05;14.77;;;3.73;;
7195;SDS011;3639;51.308;5.624;2023-12-20T02:13:31;16.77;;;4.03;;
7195;SDS011;3639;51.308;5.624;2023-12-20T02:15:57;11.83;;;3.43;;
7195;SDS011;3639;51.308;5.624;2023-12-20T02:18:22;17.33;;;3.40;;
7195;SDS011;3639;51.308;5.624;2023-12-20T02:20:48;15.93;;;3.67;;
7195;SDS011;3639;51.308;5.624;2023-12-20T02:23:14;12.80;;;3.57;;
7195;SDS011;3639;51.308;5.624;2023-12-20T02:25:39;13.73;;;3.43;;
7195;SDS011;3639;51.308;5.624;2023-12-20T02:28:05;12.70;;;3.57;;
7195;SDS011;3639;51.308;5.624;2023-12-20T02:30:31;15.80;;;3.67;;
7195;SDS011;3639;51.308;5.624;2023-12-20T02:32:58;16.33;;;3.63;;
7195;SDS011;3639;51.308;5.624;2023-12-20T02:35:25;8.40;;;3.40;;
7195;SDS011;3639;51.308;5.624;2023-12-20T02:37:50;9.43;;;3.83;;
7195;SDS011;3639;51.308;5.624;2023-12-20T02:40:16;15.90;;;3.60;;
7195;SDS011;3639;51.308;5.624;2023-12-20T02:42:41;14.63;;;3.90;;
7195;SDS011;3639;51.308;5.624;2023-12-20T02:45:07;20.03;;;4.47;;
7195;SDS011;3639;51.308;5.624;2023-12-20T02:47:33;14.40;;;3.70;;
7195;SDS011;3639;51.308;5.624;2023-12-20T02:49:58;9.83;;;3.30;;
7195;SDS011;3639;51.308;5.624;2023-12-20T02:52:24;14.83;;;4.00;;
7195;SDS011;3639;51.308;5.624;2023-12-20T02:54:50;10.07;;;3.73;;
7195;SDS011;3639;51.308;5.624;2023-12-20T02:57:17;21.10;;;4.97;;
7195;SDS011;3639;51.308;5.624;2023-12-20T02:59:42;12.47;;;5.20;;
7195;SDS011;3639;51.308;5.624;2023-12-20T03:02:08;15.30;;;4.90;;
7195;SDS011;3639;51.308;5.624;2023-12-20T03:04:33;11.63;;;5.10;;
7195;SDS011;3639;51.308;5.624;2023-12-20T03:06:59;14.40;;;4.80;;
7195;SDS011;3639;51.308;5.624;2023-12-20T03:09:24;22.97;;;5.40;;
7195;SDS011;3639;51.308;5.624;2023-12-20T03:11:50;11.90;;;4.63;;
7195;SDS011;3639;51.308;5.624;2023-12-20T03:14:15;16.03;;;5.50;;
7195;SDS011;3639;51.308;5.624;2023-12-20T03:16:41;22.97;;;5.60;;
7195;SDS011;3639;51.308;5.624;2023-12-20T03:19:07;14.60;;;5.40;;
7195;SDS011;3639;51.308;5.624;2023-12-20T03:21:32;16.50;;;6.00;;
7195;SDS011;3639;51.308;5.624;2023-12-20T03:23:58;28.63;;;6.60;;
7195;SDS011;3639;51.308;5.624;2023-12-20T03:26:23;19.47;;;5.57;;
7195;SDS011;3639;51.308;5.624;2023-12-20T03:28:49;23.63;;;6.10;;
7195;SDS011;3639;51.308;5.624;2023-12-20T03:31:14;11.80;;;5.70;;
7195;SDS011;3639;51.308;5.624;2023-12-20T03:33:40;20.80;;;5.30;;
7195;SDS011;3639;51.308;5.624;2023-12-20T03:36:05;16.50;;;5.73;;
7195;SDS011;3639;51.308;5.624;2023-12-20T03:38:31;15.17;;;6.07;;
7195;SDS011;3639;51.308;5.624;2023-12-20T03:40:57;21.60;;;5.33;;
7195;SDS011;3639;51.308;5.624;2023-12-20T03:43:22;15.83;;;5.60;;
7195;SDS011;3639;51.308;5.624;2023-12-20T03:45:48;13.00;;;5.80;;
7195;SDS011;3639;51.308;5.624;2023-12-20T03:48:13;16.37;;;6.07;;
7195;SDS011;3639;51.308;5.624;2023-12-20T03:50:39;17.80;;;5.57;;
7195;SDS011;3639;51.308;5.624;2023-12-20T03:53:05;17.57;;;5.43;;
7195;SDS011;3639;51.308;5.624;2023-12-20T03:55:30;19.03;;;6.03;;
7195;SDS011;3639;51.308;5.624;2023-12-20T03:57:56;18.63;;;5.60;;
7195;SDS011;3639;51.308;5.624;2023-12-20T04:00:21;10.23;;;5.23;;
7195;SDS011;3639;51.308;5.624;2023-12-20T04:02:47;16.23;;;5.57;;
7195;SDS011;3639;51.308;5.624;2023-12-20T04:05:12;18.47;;;5.40;;
7195;SDS011;3639;51.308;5.624;2023-12-20T04:07:38;21.63;;;5.90;;
7195;SDS011;3639;51.308;5.624;2023-12-20T04:10:04;22.00;;;6.07;;
7195;SDS011;3639;51.308;5.624;2023-12-20T04:12:30;15.43;;;5.70;;
7195;SDS011;3639;51.308;5.624;2023-12-20T04:14:57;27.37;;;6.00;;
7195;SDS011;3639;51.308;5.624;2023-12-20T04:17:23;18.27;;;5.43;;
7195;SDS011;3639;51.308;5.624;2023-12-20T04:19:52;17.10;;;5.73;;
7195;SDS011;3639;51.308;5.624;2023-12-20T04:22:17;17.83;;;6.07;;
7195;SDS011;3639;51.308;5.624;2023-12-20T04:24:44;23.97;;;6.23;;
7195;SDS011;3639;51.308;5.624;2023-12-20T04:27:09;17.30;;;6.37;;
7195;SDS011;3639;51.308;5.624;2023-12-20T04:29:35;19.40;;;6.57;;
7195;SDS011;3639;51.308;5.624;2023-12-20T04:32:01;23.90;;;6.60;;
7195;SDS011;3639;51.308;5.624;2023-12-20T04:34:26;25.30;;;6.47;;
7195;SDS011;3639;51.308;5.624;2023-12-20T04:36:52;23.97;;;7.23;;
7195;SDS011;3639;51.308;5.624;2023-12-20T04:39:18;18.90;;;5.80;;
7195;SDS011;3639;51.308;5.624;2023-12-20T04:41:43;15.07;;;5.30;;
7195;SDS011;3639;51.308;5.624;2023-12-20T04:44:09;19.83;;;6.53;;
7195;SDS011;3639;51.308;5.624;2023-12-20T04:46:35;17.03;;;5.80;;
7195;SDS011;3639;51.308;5.624;2023-12-20T04:49:00;23.00;;;6.13;;
7195;SDS011;3639;51.308;5.624;2023-12-20T04:51:26;23.00;;;5.87;;
7195;SDS011;3639;51.308;5.624;2023-12-20T04:53:52;26.97;;;6.60;;
7195;SDS011;3639;51.308;5.624;2023-12-20T04:56:17;23.63;;;5.93;;
7195;SDS011;3639;51.308;5.624;2023-12-20T04:58:43;23.87;;;6.57;;
7195;SDS011;3639;51.308;5.624;2023-12-20T05:01:09;19.43;;;6.23;;
7195;SDS011;3639;51.308;5.624;2023-12-20T05:03:35;23.67;;;6.10;;
7195;SDS011;3639;51.308;5.624;2023-12-20T05:06:00;15.70;;;5.20;;
7195;SDS011;3639;51.308;5.624;2023-12-20T05:08:26;19.50;;;5.23;;
7195;SDS011;3639;51.308;5.624;2023-12-20T05:10:53;21.57;;;4.73;;
7195;SDS011;3639;51.308;5.624;2023-12-20T05:13:19;15.77;;;4.80;;
7195;SDS011;3639;51.308;5.624;2023-12-20T05:15:45;13.63;;;4.77;;
7195;SDS011;3639;51.308;5.624;2023-12-20T05:18:11;15.00;;;5.27;;
7195;SDS011;3639;51.308;5.624;2023-12-20T05:20:37;19.63;;;5.03;;
7195;SDS011;3639;51.308;5.624;2023-12-20T05:23:03;16.73;;;4.87;;
7195;SDS011;3639;51.308;5.624;2023-12-20T05:25:29;22.17;;;5.87;;
7195;SDS011;3639;51.308;5.624;2023-12-20T05:27:54;15.40;;;5.53;;
7195;SDS011;3639;51.308;5.624;2023-12-20T05:30:21;16.20;;;5.20;;
7195;SDS011;3639;51.308;5.624;2023-12-20T05:32:46;21.87;;;4.57;;
7195;SDS011;3639;51.308;5.624;2023-12-20T05:35:12;15.90;;;4.77;;
7195;SDS011;3639;51.308;5.624;2023-12-20T05:37:38;20.73;;;4.60;;
7195;SDS011;3639;51.308;5.624;2023-12-20T05:40:03;15.63;;;4.73;;
7195;SDS011;3639;51.308;5.624;2023-12-20T05:42:29;20.30;;;5.40;;
7195;SDS011;3639;51.308;5.624;2023-12-20T05:44:55;19.90;;;5.07;;
7195;SDS011;3639;51.308;5.624;2023-12-20T05:47:20;15.93;;;5.37;;
7195;SDS011;3639;51.308;5.624;2023-12-20T05:49:46;14.47;;;4.60;;
7195;SDS011;3639;51.308;5.624;2023-12-20T05:52:12;13.87;;;4.50;;
7195;SDS011;3639;51.308;5.624;2023-12-20T05:54:37;19.40;;;4.93;;
7195;SDS011;3639;51.308;5.624;2023-12-20T05:57:03;21.23;;;4.80;;
7195;SDS011;3639;51.308;5.624;2023-12-20T05:59:28;18.63;;;4.63;;
7195;SDS011;3639;51.308;5.624;2023-12-20T06:01:54;17.27;;;4.40;;
7195;SDS011;3639;51.308;5.624;2023-12-20T06:04:20;15.27;;;4.37;;
7195;SDS011;3639;51.308;5.624;2023-12-20T06:06:45;17.67;;;4.27;;
7195;SDS011;3639;51.308;5.624;2023-12-20T06:09:11;14.17;;;4.30;;
7195;SDS011;3639;51.308;5.624;2023-12-20T06:11:37;16.00;;;4.23;;
7195;SDS011;3639;51.308;5.624;2023-12-20T06:14:02;18.00;;;4.67;;
7195;SDS011;3639;51.308;5.624;2023-12-20T06:16:28;13.83;;;4.03;;
7195;SDS011;3639;51.308;5.624;2023-12-20T06:18:53;22.87;;;5.33;;
7195;SDS011;3639;51.308;5.624;2023-12-20T06:21:19;19.23;;;4.43;;
7195;SDS011;3639;51.308;5.624;2023-12-20T06:23:45;15.93;;;4.13;;
7195;SDS011;3639;51.308;5.624;2023-12-20T06:26:10;14.20;;;4.87;;
7195;SDS011;3639;51.308;5.624;2023-12-20T06:28:36;16.80;;;5.03;;
7195;SDS011;3639;51.308;5.624;2023-12-20T06:31:01;11.40;;;4.90;;
7195;SDS011;3639;51.308;5.624;2023-12-20T06:33:28;16.63;;;4.47;;
7195;SDS011;3639;51.308;5.624;2023-12-20T06:35:55;19.53;;;5.87;;
7195;SDS011;3639;51.308;5.624;2023-12-20T06:38:21;20.73;;;4.83;;
7195;SDS011;3639;51.308;5.624;2023-12-20T06:40:47;11.77;;;4.30;;
7195;SDS011;3639;51.308;5.624;2023-12-20T06:43:12;14.53;;;4.83;;
7195;SDS011;3639;51.308;5.624;2023-12-20T06:45:38;15.00;;;4.17;;
7195;SDS011;3639;51.308;5.624;2023-12-20T06:48:04;22.03;;;5.27;;
7195;SDS011;3639;51.308;5.624;2023-12-20T06:50:30;13.90;;;4.37;;
7195;SDS011;3639;51.308;5.624;2023-12-20T06:52:56;18.43;;;4.63;;
7195;SDS011;3639;51.308;5.624;2023-12-20T06:55:22;14.17;;;4.23;;
7195;SDS011;3639;51.308;5.624;2023-12-20T06:57:48;17.67;;;4.90;;
7195;SDS011;3639;51.308;5.624;2023-12-20T07:00:13;16.30;;;4.47;;
7195;SDS011;3639;51.308;5.624;2023-12-20T07:02:40;16.23;;;4.40;;
7195;SDS011;3639;51.308;5.624;2023-12-20T07:05:05;16.37;;;4.77;;
7195;SDS011;3639;51.308;5.624;2023-12-20T07:07:31;18.07;;;4.83;;
7195;SDS011;3639;51.308;5.624;2023-12-20T07:09:57;15.13;;;4.83;;
7195;SDS011;3639;51.308;5.624;2023-12-20T07:12:22;15.97;;;4.90;;
7195;SDS011;3639;51.308;5.624;2023-12-20T07:14:48;14.67;;;5.07;;
7195;SDS011;3639;51.308;5.624;2023-12-20T07:17:13;13.93;;;4.80;;
7195;SDS011;3639;51.308;5.624;2023-12-20T07:19:40;9.23;;;4.50;;
7195;SDS011;3639;51.308;5.624;2023-12-20T07:22:06;20.63;;;5.27;;
7195;SDS011;3639;51.308;5.624;2023-12-20T07:24:38;13.30;;;4.20;;
7195;SDS011;3639;51.308;5.624;2023-12-20T07:27:03;14.80;;;5.00;;
7195;SDS011;3639;51.308;5.624;2023-12-20T07:29:29;19.90;;;6.03;;
7195;SDS011;3639;51.308;5.624;2023-12-20T07:31:55;17.70;;;4.77;;
7195;SDS011;3639;51.308;5.624;2023-12-20T07:34:20;13.23;;;5.20;;
7195;SDS011;3639;51.308;5.624;2023-12-20T07:36:46;15.50;;;4.03;;
7195;SDS011;3639;51.308;5.624;2023-12-20T07:39:12;18.83;;;5.33;;
7195;SDS011;3639;51.308;5.624;2023-12-20T07:41:37;20.97;;;5.33;;
7195;SDS011;3639;51.308;5.624;2023-12-20T07:44:04;10.67;;;4.37;;
7195;SDS011;3639;51.308;5.624;2023-12-20T07:46:29;13.97;;;4.77;;
7195;SDS011;3639;51.308;5.624;2023-12-20T07:48:55;16.97;;;4.93;;
7195;SDS011;3639;51.308;5.624;2023-12-20T07:51:21;18.73;;;5.20;;
7195;SDS011;3639;51.308;5.624;2023-12-20T07:53:46;15.03;;;5.57;;
7195;SDS011;3639;51.308;5.624;2023-12-20T07:56:18;17.57;;;4.87;;
7195;SDS011;3639;51.308;5.624;2023-12-20T07:58:45;19.57;;;5.73;;
7195;SDS011;3639;51.308;5.624;2023-12-20T08:01:11;21.73;;;5.33;;
7195;SDS011;3639;51.308;5.624;2023-12-20T08:03:37;23.70;;;6.27;;
7195;SDS011;3639;51.308;5.624;2023-12-20T08:06:03;15.07;;;5.17;;
7195;SDS011;3639;51.308;5.624;2023-12-20T08:08:29;13.23;;;4.13;;
7195;SDS011;3639;51.308;5.624;2023-12-20T08:10:55;12.33;;;4.53;;
7195;SDS011;3639;51.308;5.624;2023-12-20T08:13:22;13.93;;;4.90;;
7195;SDS011;3639;51.308;5.624;2023-12-20T08:15:51;21.97;;;4.90;;
7195;SDS011;3639;51.308;5.624;2023-12-20T08:18:17;20.50;;;4.40;;
7195;SDS011;3639;51.308;5.624;2023-12-20T08:20:42;30.37;;;4.57;;
7195;SDS011;3639;51.308;5.624;2023-12-20T08:23:08;14.67;;;5.00;;
7195;SDS011;3639;51.308;5.624;2023-12-20T08:25:33;24.10;;;5.20;;
7195;SDS011;3639;51.308;5.624;2023-12-20T08:27:59;18.37;;;5.73;;
7195;SDS011;3639;51.308;5.624;2023-12-20T08:30:25;14.70;;;4.53;;
7195;SDS011;3639;51.308;5.624;2023-12-20T08:32:51;17.27;;;3.90;;
7195;SDS011;3639;51.308;5.624;2023-12-20T08:35:17;18.17;;;4.97;;
7195;SDS011;3639;51.308;5.624;2023-12-20T08:37:43;23.80;;;4.87;;
7195;SDS011;3639;51.308;5.624;2023-12-20T08:40:09;18.33;;;6.33;;
7195;SDS011;3639;51.308;5.624;2023-12-20T08:42:35;22.03;;;4.67;;
7195;SDS011;3639;51.308;5.624;2023-12-20T08:45:00;25.13;;;5.53;;
7195;SDS011;3639;51.308;5.624;2023-12-20T08:47:26;18.73;;;5.40;;
7195;SDS011;3639;51.308;5.624;2023-12-20T08:49:52;22.10;;;5.13;;
7195;SDS011;3639;51.308;5.624;2023-12-20T08:52:21;14.93;;;4.67;;
7195;SDS011;3639;51.308;5.624;2023-12-20T08:54:48;15.10;;;5.83;;
7195;SDS011;3639;51.308;5.624;2023-12-20T08:57:16;18.87;;;5.13;;
7195;SDS011;3639;51.308;5.624;2023-12-20T08:59:45;20.83;;;5.33;;
7195;SDS011;3639;51.308;5.624;2023-12-20T09:02:12;15.77;;;4.77;;
7195;SDS011;3639;51.308;5.624;2023-12-20T09:04:37;12.63;;;4.97;;
7195;SDS011;3639;51.308;5.624;2023-12-20T09:07:03;23.77;;;5.73;;
7195;SDS011;3639;51.308;5.624;2023-12-20T09:09:28;16.53;;;4.60;;
7195;SDS011;3639;51.308;5.624;2023-12-20T09:11:54;20.43;;;5.73;;
7195;SDS011;3639;51.308;5.624;2023-12-20T09:14:19;19.10;;;6.47;;
7195;SDS011;3639;51.308;5.624;2023-12-20T09:16:45;21.23;;;5.70;;
7195;SDS011;3639;51.308;5.624;2023-12-20T09:19:10;17.13;;;6.63;;
7195;SDS011;3639;51.308;5.624;2023-12-20T09:21:36;14.47;;;4.70;;
7195;SDS011;3639;51.308;5.624;2023-12-20T09:24:02;22.40;;;5.10;;
7195;SDS011;3639;51.308;5.624;2023-12-20T09:26:28;19.97;;;5.20;;
7195;SDS011;3639;51.308;5.624;2023-12-20T09:28:53;12.67;;;4.90;;
7195;SDS011;3639;51.308;5.624;2023-12-20T09:31:19;18.43;;;5.20;;
7195;SDS011;3639;51.308;5.624;2023-12-20T09:33:44;15.13;;;4.43;;
7195;SDS011;3639;51.308;5.624;2023-12-20T09:36:10;13.40;;;4.60;;
7195;SDS011;3639;51.308;5.624;2023-12-20T09:38:35;11.03;;;3.40;;
7195;SDS011;3639;51.308;5.624;2023-12-20T09:41:01;12.43;;;4.20;;
7195;SDS011;3639;51.308;5.624;2023-12-20T09:43:29;13.87;;;4.03;;
7195;SDS011;3639;51.308;5.624;2023-12-20T09:45:56;14.37;;;4.07;;
7195;SDS011;3639;51.308;5.624;2023-12-20T09:48:25;13.67;;;4.47;;
7195;SDS011;3639;51.308;5.624;2023-12-20T09:50:52;13.47;;;4.07;;
7195;SDS011;3639;51.308;5.624;2023-12-20T09:53:18;14.60;;;4.17;;
7195;SDS011;3639;51.308;5.624;2023-12-20T09:55:45;12.40;;;4.77;;
7195;SDS011;3639;51.308;5.624;2023-12-20T09:58:10;14.93;;;4.27;;
7195;SDS011;3639;51.308;5.624;2023-12-20T10:00:36;20.13;;;5.20;;
7195;SDS011;3639;51.308;5.624;2023-12-20T10:03:02;16.47;;;4.23;;
7195;SDS011;3639;51.308;5.624;2023-12-20T10:05:31;11.03;;;4.40;;
7195;SDS011;3639;51.308;5.624;2023-12-20T10:07:57;14.67;;;5.10;;
7195;SDS011;3639;51.308;5.624;2023-12-20T10:10:24;20.93;;;4.80;;
7195;SDS011;3639;51.308;5.624;2023-12-20T10:13:06;16.37;;;4.97;;
7195;SDS011;3639;51.308;5.624;2023-12-20T10:15:34;16.73;;;4.50;;
7195;SDS011;3639;51.308;5.624;2023-12-20T10:18:01;8.20;;;4.27;;
7195;SDS011;3639;51.308;5.624;2023-12-20T10:20:27;12.00;;;4.37;;
7195;SDS011;3639;51.308;5.624;2023-12-20T10:22:59;10.77;;;4.67;;
7195;SDS011;3639;51.308;5.624;2023-12-20T10:25:26;13.20;;;5.43;;
7195;SDS011;3639;51.308;5.624;2023-12-20T10:28:11;18.43;;;5.03;;
7195;SDS011;3639;51.308;5.624;2023-12-20T10:30:38;14.40;;;5.37;;
7195;SDS011;3639;51.308;5.624;2023-12-20T10:33:08;15.80;;;4.77;;
7195;SDS011;3639;51.308;5.624;2023-12-20T10:35:37;22.47;;;4.37;;
7195;SDS011;3639;51.308;5.624;2023-12-20T10:38:05;19.63;;;4.53;;
7195;SDS011;3639;51.308;5.624;2023-12-20T10:40:34;14.60;;;4.60;;
7195;SDS011;3639;51.308;5.624;2023-12-20T10:43:03;12.70;;;4.37;;
7195;SDS011;3639;51.308;5.624;2023-12-20T10:45:30;17.70;;;4.80;;
7195;SDS011;3639;51.308;5.624;2023-12-20T10:47:55;15.03;;;4.57;;
7195;SDS011;3639;51.308;5.624;2023-12-20T10:50:24;12.47;;;4.27;;
7195;SDS011;3639;51.308;5.624;2023-12-20T10:52:51;11.70;;;5.40;;
7195;SDS011;3639;51.308;5.624;2023-12-20T10:55:20;14.03;;;3.97;;
7195;SDS011;3639;51.308;5.624;2023-12-20T10:57:49;13.00;;;5.10;;
7195;SDS011;3639;51.308;5.624;2023-12-20T11:00:35;20.40;;;6.97;;
7195;SDS011;3639;51.308;5.624;2023-12-20T11:03:08;16.47;;;4.93;;
7195;SDS011;3639;51.308;5.624;2023-12-20T11:05:40;14.47;;;4.40;;
7195;SDS011;3639;51.308;5.624;2023-12-20T11:08:38;10.87;;;5.50;;
7195;SDS011;3639;51.308;5.624;2023-12-20T11:11:14;13.07;;;5.80;;
7195;SDS011;3639;51.308;5.624;2023-12-20T11:16:31;21.10;;;6.67;;
7195;SDS011;3639;51.308;5.624;2023-12-20T11:18:57;13.17;;;6.27;;
7195;SDS011;3639;51.308;5.624;2023-12-20T11:21:29;20.13;;;8.50;;
7195;SDS011;3639;51.308;5.624;2023-12-20T11:23:55;17.30;;;6.73;;
7195;SDS011;3639;51.308;5.624;2023-12-20T11:26:27;20.63;;;8.10;;
7195;SDS011;3639;51.308;5.624;2023-12-20T11:31:55;20.07;;;8.27;;
7195;SDS011;3639;51.308;5.624;2023-12-20T11:34:20;20.93;;;5.30;;
7195;SDS011;3639;51.308;5.624;2023-12-20T11:36:46;14.33;;;6.33;;
7195;SDS011;3639;51.308;5.624;2023-12-20T11:39:11;13.50;;;5.57;;
7195;SDS011;3639;51.308;5.624;2023-12-20T11:41:44;15.03;;;5.10;;
7195;SDS011;3639;51.308;5.624;2023-12-20T11:44:10;21.63;;;6.13;;
7195;SDS011;3639;51.308;5.624;2023-12-20T11:46:36;11.63;;;5.37;;
7195;SDS011;3639;51.308;5.624;2023-12-20T11:49:02;13.97;;;9.07;;
7195;SDS011;3639;51.308;5.624;2023-12-20T11:51:28;65.93;;;34.83;;
7195;SDS011;3639;51.308;5.624;2023-12-20T11:53:53;45.10;;;24.93;;
7195;SDS011;3639;51.308;5.624;2023-12-20T11:56:19;17.13;;;11.13;;
7195;SDS011;3639;51.308;5.624;2023-12-20T11:58:45;24.37;;;15.60;;
7195;SDS011;3639;51.308;5.624;2023-12-20T12:01:10;20.97;;;12.77;;
7195;SDS011;3639;51.308;5.624;2023-12-20T12:03:36;19.00;;;13.23;;
7195;SDS011;3639;51.308;5.624;2023-12-20T12:06:02;23.40;;;10.47;;
7195;SDS011;3639;51.308;5.624;2023-12-20T12:08:29;9.57;;;7.13;;
7195;SDS011;3639;51.308;5.624;2023-12-20T12:10:55;21.83;;;10.20;;
7195;SDS011;3639;51.308;5.624;2023-12-20T12:13:20;18.00;;;7.90;;
7195;SDS011;3639;51.308;5.624;2023-12-20T12:15:47;15.40;;;5.73;;
7195;SDS011;3639;51.308;5.624;2023-12-20T12:18:15;16.77;;;5.53;;
7195;SDS011;3639;51.308;5.624;2023-12-20T12:20:41;13.33;;;4.97;;
7195;SDS011;3639;51.308;5.624;2023-12-20T12:23:07;12.67;;;5.37;;
7195;SDS011;3639;51.308;5.624;2023-12-20T12:25:35;11.27;;;5.37;;
7195;SDS011;3639;51.308;5.624;2023-12-20T12:28:02;14.90;;;5.50;;
7195;SDS011;3639;51.308;5.624;2023-12-20T12:30:27;13.50;;;5.47;;
7195;SDS011;3639;51.308;5.624;2023-12-20T12:32:53;13.00;;;4.97;;
7195;SDS011;3639;51.308;5.624;2023-12-20T12:35:23;18.07;;;5.53;;
7195;SDS011;3639;51.308;5.624;2023-12-20T12:37:49;10.50;;;5.03;;
7195;SDS011;3639;51.308;5.624;2023-12-20T12:40:16;12.33;;;6.30;;
7195;SDS011;3639;51.308;5.624;2023-12-20T12:42:43;17.17;;;5.03;;
7195;SDS011;3639;51.308;5.624;2023-12-20T12:45:09;16.13;;;5.40;;
7195;SDS011;3639;51.308;5.624;2023-12-20T12:47:36;17.57;;;5.83;;
7195;SDS011;3639;51.308;5.624;2023-12-20T12:50:02;13.40;;;5.40;;
7195;SDS011;3639;51.308;5.624;2023-12-20T12:52:28;13.07;;;5.47;;
7195;SDS011;3639;51.308;5.624;2023-12-20T12:54:53;11.90;;;6.00;;
7195;SDS011;3639;51.308;5.624;2023-12-20T12:57:19;13.63;;;5.30;;
7195;SDS011;3639;51.308;5.624;2023-12-20T12:59:45;13.23;;;5.23;;
7195;SDS011;3639;51.308;5.624;2023-12-20T13:02:14;14.03;;;5.80;;
7195;SDS011;3639;51.308;5.624;2023-12-20T13:04:40;10.23;;;5.77;;
7195;SDS011;3639;51.308;5.624;2023-12-20T13:07:06;12.87;;;5.03;;
7195;SDS011;3639;51.308;5.624;2023-12-20T13:09:32;14.57;;;5.20;;
7195;SDS011;3639;51.308;5.624;2023-12-20T13:11:58;9.70;;;4.80;;
7195;SDS011;3639;51.308;5.624;2023-12-20T13:14:24;18.90;;;5.87;;
7195;SDS011;3639;51.308;5.624;2023-12-20T13:16:50;11.20;;;5.00;;
7195;SDS011;3639;51.308;5.624;2023-12-20T13:19:15;12.80;;;5.60;;
7195;SDS011;3639;51.308;5.624;2023-12-20T13:21:41;19.10;;;5.57;;
7195;SDS011;3639;51.308;5.624;2023-12-20T13:24:07;18.90;;;5.80;;
7195;SDS011;3639;51.308;5.624;2023-12-20T13:26:32;15.10;;;5.63;;
7195;SDS011;3639;51.308;5.624;2023-12-20T13:28:58;15.13;;;6.17;;
7195;SDS011;3639;51.308;5.624;2023-12-20T13:31:24;16.87;;;5.40;;
7195;SDS011;3639;51.308;5.624;2023-12-20T13:33:52;14.90;;;5.40;;
7195;SDS011;3639;51.308;5.624;2023-12-20T13:36:18;12.83;;;5.70;;
7195;SDS011;3639;51.308;5.624;2023-12-20T13:38:44;22.07;;;5.47;;
7195;SDS011;3639;51.308;5.624;2023-12-20T13:41:09;13.30;;;5.97;;
7195;SDS011;3639;51.308;5.624;2023-12-20T13:43:35;19.07;;;6.23;;
7195;SDS011;3639;51.308;5.624;2023-12-20T13:46:01;16.77;;;5.70;;
7195;SDS011;3639;51.308;5.624;2023-12-20T13:48:26;16.50;;;6.50;;
7195;SDS011;3639;51.308;5.624;2023-12-20T13:50:52;16.20;;;5.90;;
7195;SDS011;3639;51.308;5.624;2023-12-20T13:53:17;10.53;;;4.30;;
7195;SDS011;3639;51.308;5.624;2023-12-20T13:55:44;17.17;;;6.30;;
7195;SDS011;3639;51.308;5.624;2023-12-20T13:58:09;15.37;;;5.40;;
7195;SDS011;3639;51.308;5.624;2023-12-20T14:00:35;14.67;;;4.90;;
7195;SDS011;3639;51.308;5.624;2023-12-20T14:03:01;13.63;;;6.03;;
7195;SDS011;3639;51.308;5.624;2023-12-20T14:05:28;11.13;;;5.60;;
7195;SDS011;3639;51.308;5.624;2023-12-20T14:07:54;13.60;;;5.60;;
7195;SDS011;3639;51.308;5.624;2023-12-20T14:10:22;13.37;;;5.87;;
7195;SDS011;3639;51.308;5.624;2023-12-20T14:12:48;14.43;;;5.33;;
7195;SDS011;3639;51.308;5.624;2023-12-20T14:15:14;17.97;;;5.90;;
7195;SDS011;3639;51.308;5.624;2023-12-20T14:17:40;15.17;;;5.70;;
7195;SDS011;3639;51.308;5.624;2023-12-20T14:20:09;17.63;;;5.37;;
7195;SDS011;3639;51.308;5.624;2023-12-20T14:22:35;11.93;;;5.90;;
7195;SDS011;3639;51.308;5.624;2023-12-20T14:25:03;16.43;;;5.43;;
7195;SDS011;3639;51.308;5.624;2023-12-20T14:27:29;14.10;;;5.27;;
7195;SDS011;3639;51.308;5.624;2023-12-20T14:29:55;20.70;;;6.57;;
7195;SDS011;3639;51.308;5.624;2023-12-20T14:32:20;16.37;;;5.60;;
7195;SDS011;3639;51.308;5.624;2023-12-20T14:34:46;15.53;;;5.83;;
7195;SDS011;3639;51.308;5.624;2023-12-20T14:37:12;13.63;;;4.83;;
7195;SDS011;3639;51.308;5.624;2023-12-20T14:39:37;16.37;;;6.00;;
7195;SDS011;3639;51.308;5.624;2023-12-20T14:42:09;22.13;;;4.90;;
7195;SDS011;3639;51.308;5.624;2023-12-20T14:44:38;16.07;;;3.73;;
7195;SDS011;3639;51.308;5.624;2023-12-20T14:47:07;10.40;;;5.10;;
7195;SDS011;3639;51.308;5.624;2023-12-20T14:49:32;16.23;;;4.03;;
7195;SDS011;3639;51.308;5.624;2023-12-20T14:51:58;13.17;;;4.63;;
7195;SDS011;3639;51.308;5.624;2023-12-20T14:54:24;17.13;;;4.63;;
7195;SDS011;3639;51.308;5.624;2023-12-20T14:56:50;17.57;;;4.83;;
7195;SDS011;3639;51.308;5.624;2023-12-20T14:59:16;15.90;;;4.57;;
7195;SDS011;3639;51.308;5.624;2023-12-20T15:01:41;16.43;;;4.73;;
7195;SDS011;3639;51.308;5.624;2023-12-20T15:04:09;14.03;;;4.30;;